Hamaritha — PF2437 — position and weather

sailwx.info

Track history (hours):
 
Tides and Currents Weather Stations Pressure Air Temp Water Temp Dewpoint Dewpoint Depression Visibility Wind Speed Wind Dir Waves Ship Positions

Hamaritha

Last reported at 2015-Apr-28 17:34 UTC. Time now 2015-Apr-28 18:13 UTC.
Position N 51°45' E 004°38'.

Length 86 m.

Type: Ship. MMSI: 244700691.

Date/timePositionNaut miles runAvg speedWind from/ knotsBaromVisibWave heightAir tempDewpointWater temp
2015-Apr-28 17:34N 51°45' E 004°38'6 6.0
2015-Apr-28 16:29N 51°42' E 004°29'3 3.6
2015-Apr-28 15:32N 51°41' E 004°24'6 6.3
2015-Apr-28 14:33N 51°38' E 004°15'5 4.7
2015-Apr-28 13:33N 51°33' E 004°14'6 6.2
2015-Apr-28 12:33N 51°27' E 004°14'5 4.8
2015-Apr-28 11:33N 51°23' E 004°16'6 5.5
2015-Apr-28 10:33N 51°18' E 004°20'5 5.3
2015-Apr-28 09:33N 51°14' E 004°26'4 4.0
2015-Apr-28 08:33N 51°14' E 004°32'51 2.7
2015-Apr-27 13:32N 50°46' E 005°41'6 6.3
2015-Apr-27 12:33N 50°40' E 005°39'6 5.5
2015-Apr-27 11:34N 50°36' E 005°33'4 4.1
2015-Apr-27 10:34N 50°35' E 005°26'1 1.2
2015-Apr-27 09:29N 50°35' E 005°24'0 0.0
2015-Apr-27 08:33N 50°35' E 005°24'0 0.0
2015-Apr-27 07:27N 50°35' E 005°25'0 0.0
2015-Apr-27 06:34N 50°35' E 005°25'0 0.0
2015-Apr-27 05:31N 50°35' E 005°25'0 0.0
2015-Apr-27 04:28N 50°35' E 005°25'0 0.1
2015-Apr-27 03:33N 50°35' E 005°25'0 0.1
2015-Apr-27 02:34N 50°35' E 005°25'0 0.0
2015-Apr-27 01:34N 50°35' E 005°25'0 0.0
2015-Apr-27 00:34N 50°35' E 005°25'0 0.0
2015-Apr-26 23:33N 50°35' E 005°25'0 0.0
2015-Apr-26 22:34N 50°35' E 005°25'0 0.0
2015-Apr-26 21:34N 50°35' E 005°25'0 0.0
2015-Apr-26 20:34N 50°35' E 005°25'0 0.0
2015-Apr-26 19:34N 50°35' E 005°25'0 0.0
2015-Apr-26 18:34N 50°35' E 005°25'0 0.0
2015-Apr-26 17:34N 50°35' E 005°25'0 0.0
2015-Apr-26 16:34N 50°35' E 005°25'0 0.0
2015-Apr-26 15:34N 50°35' E 005°25'0 0.0
2015-Apr-26 14:34N 50°35' E 005°25'0 0.0
2015-Apr-26 13:34N 50°35' E 005°25'0 0.0
2015-Apr-26 12:34N 50°35' E 005°25'0 0.0
2015-Apr-26 11:33N 50°35' E 005°25'0 0.0
2015-Apr-26 10:34N 50°35' E 005°25'0 0.0
2015-Apr-26 09:33N 50°35' E 005°25'0 0.0
2015-Apr-26 08:34N 50°35' E 005°25'0 0.0
2015-Apr-26 07:34N 50°35' E 005°25'0 0.0
2015-Apr-26 06:34N 50°35' E 005°25'0 0.0
2015-Apr-26 05:34N 50°35' E 005°25'0 0.0
2015-Apr-26 04:34N 50°35' E 005°25'0 0.0
2015-Apr-26 03:33N 50°35' E 005°25'0 0.0
2015-Apr-26 02:33N 50°35' E 005°25'0 0.0
2015-Apr-26 01:33N 50°35' E 005°25'0 0.0
2015-Apr-26 00:33N 50°35' E 005°25'0 0.0
2015-Apr-25 23:34N 50°35' E 005°25'0 0.0
2015-Apr-25 22:33N 50°35' E 005°25'0 0.0
2015-Apr-25 21:34N 50°35' E 005°25'0 0.0
2015-Apr-25 20:33N 50°35' E 005°25'0 0.0
2015-Apr-25 19:34N 50°35' E 005°25'0 0.0
2015-Apr-25 18:34N 50°35' E 005°25'0 0.0
2015-Apr-25 17:33N 50°35' E 005°25'0 0.0
2015-Apr-25 16:34N 50°35' E 005°25'0 0.0
2015-Apr-25 15:33N 50°35' E 005°25'0 0.0
2015-Apr-25 14:34N 50°35' E 005°25'0 0.0
2015-Apr-25 13:34N 50°35' E 005°25'0 0.0
2015-Apr-25 12:34N 50°35' E 005°25'0 0.0
2015-Apr-25 11:33N 50°35' E 005°25'0 0.0
2015-Apr-25 10:34N 50°35' E 005°25'0 0.0
2015-Apr-25 09:34N 50°35' E 005°25'0 0.0
2015-Apr-25 08:34N 50°35' E 005°25'0 0.0
2015-Apr-25 07:34N 50°35' E 005°25'0 0.0
2015-Apr-25 06:34N 50°35' E 005°25'0 0.0
2015-Apr-25 05:34N 50°35' E 005°25'0 0.0
2015-Apr-25 04:33N 50°35' E 005°25'0 0.0
2015-Apr-25 03:34N 50°35' E 005°25'0 0.0
2015-Apr-25 02:33N 50°35' E 005°25'0 0.0
2015-Apr-25 01:34N 50°35' E 005°25'0 0.0
2015-Apr-25 00:34N 50°35' E 005°25'0 0.0
2015-Apr-24 23:34N 50°35' E 005°25'0 0.0
2015-Apr-24 22:34N 50°35' E 005°25'0 0.0
2015-Apr-24 21:33N 50°35' E 005°25'0 0.0
2015-Apr-24 20:33N 50°35' E 005°25'0 0.0
2015-Apr-24 19:33N 50°35' E 005°25'0 0.0
2015-Apr-24 18:33N 50°35' E 005°25'0 0.0
2015-Apr-24 17:33N 50°35' E 005°25'2 2.3
2015-Apr-24 16:33N 50°36' E 005°28'3 2.6
2015-Apr-24 15:34N 50°37' E 005°32'6 6.3
2015-Apr-24 14:34N 50°41' E 005°39'49 1.9
2015-Apr-23 12:24N 51°12' E 004°38'4 4.8
2015-Apr-23 11:34N 51°14' E 004°32'2 1.7
2015-Apr-23 10:33N 51°14' E 004°30'5 5.2
2015-Apr-23 09:34N 51°15' E 004°22'7 6.8
2015-Apr-23 08:31N 51°22' E 004°18'6 5.7
2015-Apr-23 07:31N 51°27' E 004°14'4 3.7
2015-Apr-23 06:33N 51°30' E 004°13'6 6.4
2015-Apr-23 05:33N 51°37' E 004°12'6 6.0
2015-Apr-23 04:33N 51°39' E 004°20'0 0.0
2015-Apr-23 03:30N 51°39' E 004°20'0 0.0
2015-Apr-23 02:31N 51°39' E 004°20'8 3.9
2015-Apr-23 00:29N 51°42' E 004°33'5 5.5
2015-Apr-22 23:33N 51°46' E 004°38'5 5.0
2015-Apr-22 22:34N 51°50' E 004°33'6 5.8
2015-Apr-22 21:33N 51°50' E 004°23'4 4.0
2015-Apr-22 20:33N 51°54' E 004°22'0 0.2
2015-Apr-22 19:33N 51°54' E 004°22'0 0.0
2015-Apr-22 18:33N 51°54' E 004°22'0 0.0
2015-Apr-22 17:33N 51°54' E 004°22'0 0.0
2015-Apr-22 16:33N 51°54' E 004°22'0 0.2
2015-Apr-22 15:33N 51°54' E 004°22'0 0.0
2015-Apr-22 14:33N 51°54' E 004°22'0 0.0
2015-Apr-22 13:33N 51°54' E 004°22'0 0.0
2015-Apr-22 12:33N 51°54' E 004°22'3 3.2
2015-Apr-22 11:33N 51°53' E 004°26'0 0.0
2015-Apr-20 15:03N 51°53' E 004°26'0 0.1
2015-Apr-20 14:33N 51°53' E 004°26'0 0.0
2015-Apr-20 13:33N 51°53' E 004°26'0 0.0
2015-Apr-20 12:33N 51°53' E 004°26'0 0.0
2015-Apr-20 11:33N 51°53' E 004°26'0 0.0
2015-Apr-20 10:33N 51°53' E 004°26'0 0.0
2015-Apr-20 09:33N 51°53' E 004°26'0 0.0
2015-Apr-20 08:33N 51°53' E 004°26'0 0.0
2015-Apr-20 07:33N 51°53' E 004°26'0 0.0
2015-Apr-20 06:33N 51°53' E 004°26'0 0.0
2015-Apr-20 05:33N 51°53' E 004°26'0 0.0
2015-Apr-20 04:32N 51°53' E 004°26'0 0.0
2015-Apr-20 03:33N 51°53' E 004°26'0 0.0
2015-Apr-20 02:33N 51°53' E 004°26'0 0.0
2015-Apr-20 01:33N 51°53' E 004°26'0 0.0
2015-Apr-20 00:33N 51°53' E 004°26'0 0.0
2015-Apr-19 23:33N 51°53' E 004°26'0 0.0
2015-Apr-19 22:33N 51°53' E 004°26'0 0.0
2015-Apr-19 21:33N 51°53' E 004°26'0 0.0
2015-Apr-19 20:33N 51°53' E 004°26'0 0.0
2015-Apr-19 19:33N 51°53' E 004°26'0 0.0
2015-Apr-19 18:33N 51°53' E 004°26'0 0.0
2015-Apr-19 17:32N 51°53' E 004°26'0 0.0
2015-Apr-19 16:33N 51°53' E 004°26'0 0.0
2015-Apr-19 15:33N 51°53' E 004°26'0 0.0
2015-Apr-19 14:33N 51°53' E 004°26'0 0.0
2015-Apr-19 13:33N 51°53' E 004°26'0 0.0
2015-Apr-19 12:33N 51°53' E 004°26'0 0.0
2015-Apr-19 11:33N 51°53' E 004°26'0 0.0
2015-Apr-19 10:33N 51°53' E 004°26'0 0.0
2015-Apr-19 09:33N 51°53' E 004°26'0 0.0
2015-Apr-19 08:33N 51°53' E 004°26'0 0.0
2015-Apr-19 06:33N 51°53' E 004°26'0 0.0
2015-Apr-19 05:33N 51°53' E 004°26'0 0.0
2015-Apr-19 04:33N 51°53' E 004°26'0 0.0
2015-Apr-19 03:33N 51°53' E 004°26'0 0.0
2015-Apr-19 02:33N 51°53' E 004°26'0 0.0
2015-Apr-19 01:33N 51°53' E 004°26'0 0.0
2015-Apr-19 00:33N 51°53' E 004°26'0 0.0
2015-Apr-18 23:33N 51°53' E 004°26'0 0.0
2015-Apr-18 22:33N 51°53' E 004°26'0 0.0
2015-Apr-18 20:33N 51°53' E 004°26'0 0.0
2015-Apr-18 19:33N 51°53' E 004°26'0 0.0
2015-Apr-18 18:33N 51°53' E 004°26'  
Track history (hours):
 
Tides and Currents Weather Stations Pressure Air Temp Water Temp Dewpoint Dewpoint Depression Visibility Wind Speed Wind Dir Waves Ship Positions

Hamaritha

Last reported at 2015-Apr-28 17:34 UTC. Time now 2015-Apr-28 18:13 UTC.
Position N 51°45' E 004°38'.

Length 86 m.

Type: Ship. MMSI: 244700691.

Date/timePositionNaut miles runAvg speedWind from/ knotsBaromVisibWave heightAir tempDewpointWater temp
2015-Apr-28 17:34N 51°45' E 004°38'6 6.0
2015-Apr-28 16:29N 51°42' E 004°29'3 3.6
2015-Apr-28 15:32N 51°41' E 004°24'6 6.3
2015-Apr-28 14:33N 51°38' E 004°15'5 4.7
2015-Apr-28 13:33N 51°33' E 004°14'6 6.2
2015-Apr-28 12:33N 51°27' E 004°14'5 4.8
2015-Apr-28 11:33N 51°23' E 004°16'6 5.5
2015-Apr-28 10:33N 51°18' E 004°20'5 5.3
2015-Apr-28 09:33N 51°14' E 004°26'4 4.0
2015-Apr-28 08:33N 51°14' E 004°32'51 2.7
2015-Apr-27 13:32N 50°46' E 005°41'6 6.3
2015-Apr-27 12:33N 50°40' E 005°39'6 5.5
2015-Apr-27 11:34N 50°36' E 005°33'4 4.1
2015-Apr-27 10:34N 50°35' E 005°26'1 1.2
2015-Apr-27 09:29N 50°35' E 005°24'0 0.0
2015-Apr-27 08:33N 50°35' E 005°24'0 0.0
2015-Apr-27 07:27N 50°35' E 005°25'0 0.0
2015-Apr-27 06:34N 50°35' E 005°25'0 0.0
2015-Apr-27 05:31N 50°35' E 005°25'0 0.0
2015-Apr-27 04:28N 50°35' E 005°25'0 0.1
2015-Apr-27 03:33N 50°35' E 005°25'0 0.1
2015-Apr-27 02:34N 50°35' E 005°25'0 0.0
2015-Apr-27 01:34N 50°35' E 005°25'0 0.0
2015-Apr-27 00:34N 50°35' E 005°25'0 0.0
2015-Apr-26 23:33N 50°35' E 005°25'0 0.0
2015-Apr-26 22:34N 50°35' E 005°25'0 0.0
2015-Apr-26 21:34N 50°35' E 005°25'0 0.0
2015-Apr-26 20:34N 50°35' E 005°25'0 0.0
2015-Apr-26 19:34N 50°35' E 005°25'0 0.0
2015-Apr-26 18:34N 50°35' E 005°25'0 0.0
2015-Apr-26 17:34N 50°35' E 005°25'0 0.0
2015-Apr-26 16:34N 50°35' E 005°25'0 0.0
2015-Apr-26 15:34N 50°35' E 005°25'0 0.0
2015-Apr-26 14:34N 50°35' E 005°25'0 0.0
2015-Apr-26 13:34N 50°35' E 005°25'0 0.0
2015-Apr-26 12:34N 50°35' E 005°25'0 0.0
2015-Apr-26 11:33N 50°35' E 005°25'0 0.0
2015-Apr-26 10:34N 50°35' E 005°25'0 0.0
2015-Apr-26 09:33N 50°35' E 005°25'0 0.0
2015-Apr-26 08:34N 50°35' E 005°25'0 0.0
2015-Apr-26 07:34N 50°35' E 005°25'0 0.0
2015-Apr-26 06:34N 50°35' E 005°25'0 0.0
2015-Apr-26 05:34N 50°35' E 005°25'0 0.0
2015-Apr-26 04:34N 50°35' E 005°25'0 0.0
2015-Apr-26 03:33N 50°35' E 005°25'0 0.0
2015-Apr-26 02:33N 50°35' E 005°25'0 0.0
2015-Apr-26 01:33N 50°35' E 005°25'0 0.0
2015-Apr-26 00:33N 50°35' E 005°25'0 0.0
2015-Apr-25 23:34N 50°35' E 005°25'0 0.0
2015-Apr-25 22:33N 50°35' E 005°25'0 0.0
2015-Apr-25 21:34N 50°35' E 005°25'0 0.0
2015-Apr-25 20:33N 50°35' E 005°25'0 0.0
2015-Apr-25 19:34N 50°35' E 005°25'0 0.0
2015-Apr-25 18:34N 50°35' E 005°25'0 0.0
2015-Apr-25 17:33N 50°35' E 005°25'0 0.0
2015-Apr-25 16:34N 50°35' E 005°25'0 0.0
2015-Apr-25 15:33N 50°35' E 005°25'0 0.0
2015-Apr-25 14:34N 50°35' E 005°25'0 0.0
2015-Apr-25 13:34N 50°35' E 005°25'0 0.0
2015-Apr-25 12:34N 50°35' E 005°25'0 0.0
2015-Apr-25 11:33N 50°35' E 005°25'0 0.0
2015-Apr-25 10:34N 50°35' E 005°25'0 0.0
2015-Apr-25 09:34N 50°35' E 005°25'0 0.0
2015-Apr-25 08:34N 50°35' E 005°25'0 0.0
2015-Apr-25 07:34N 50°35' E 005°25'0 0.0
2015-Apr-25 06:34N 50°35' E 005°25'0 0.0
2015-Apr-25 05:34N 50°35' E 005°25'0 0.0
2015-Apr-25 04:33N 50°35' E 005°25'0 0.0
2015-Apr-25 03:34N 50°35' E 005°25'0 0.0
2015-Apr-25 02:33N 50°35' E 005°25'0 0.0
2015-Apr-25 01:34N 50°35' E 005°25'0 0.0
2015-Apr-25 00:34N 50°35' E 005°25'0 0.0
2015-Apr-24 23:34N 50°35' E 005°25'0 0.0
2015-Apr-24 22:34N 50°35' E 005°25'0 0.0
2015-Apr-24 21:33N 50°35' E 005°25'0 0.0
2015-Apr-24 20:33N 50°35' E 005°25'0 0.0
2015-Apr-24 19:33N 50°35' E 005°25'0 0.0
2015-Apr-24 18:33N 50°35' E 005°25'0 0.0
2015-Apr-24 17:33N 50°35' E 005°25'2 2.3
2015-Apr-24 16:33N 50°36' E 005°28'3 2.6
2015-Apr-24 15:34N 50°37' E 005°32'6 6.3
2015-Apr-24 14:34N 50°41' E 005°39'49 1.9
2015-Apr-23 12:24N 51°12' E 004°38'4 4.8
2015-Apr-23 11:34N 51°14' E 004°32'2 1.7
2015-Apr-23 10:33N 51°14' E 004°30'5 5.2
2015-Apr-23 09:34N 51°15' E 004°22'7 6.8
2015-Apr-23 08:31N 51°22' E 004°18'6 5.7
2015-Apr-23 07:31N 51°27' E 004°14'4 3.7
2015-Apr-23 06:33N 51°30' E 004°13'6 6.4
2015-Apr-23 05:33N 51°37' E 004°12'6 6.0
2015-Apr-23 04:33N 51°39' E 004°20'0 0.0
2015-Apr-23 03:30N 51°39' E 004°20'0 0.0
2015-Apr-23 02:31N 51°39' E 004°20'8 3.9
2015-Apr-23 00:29N 51°42' E 004°33'5 5.5
2015-Apr-22 23:33N 51°46' E 004°38'5 5.0
2015-Apr-22 22:34N 51°50' E 004°33'6 5.8
2015-Apr-22 21:33N 51°50' E 004°23'4 4.0
2015-Apr-22 20:33N 51°54' E 004°22'0 0.2
2015-Apr-22 19:33N 51°54' E 004°22'0 0.0
2015-Apr-22 18:33N 51°54' E 004°22'0 0.0
2015-Apr-22 17:33N 51°54' E 004°22'0 0.0
2015-Apr-22 16:33N 51°54' E 004°22'0 0.2
2015-Apr-22 15:33N 51°54' E 004°22'0 0.0
2015-Apr-22 14:33N 51°54' E 004°22'0 0.0
2015-Apr-22 13:33N 51°54' E 004°22'0 0.0
2015-Apr-22 12:33N 51°54' E 004°22'3 3.2
2015-Apr-22 11:33N 51°53' E 004°26'0 0.0
2015-Apr-20 15:03N 51°53' E 004°26'0 0.1
2015-Apr-20 14:33N 51°53' E 004°26'0 0.0
2015-Apr-20 13:33N 51°53' E 004°26'0 0.0
2015-Apr-20 12:33N 51°53' E 004°26'0 0.0
2015-Apr-20 11:33N 51°53' E 004°26'0 0.0
2015-Apr-20 10:33N 51°53' E 004°26'0 0.0
2015-Apr-20 09:33N 51°53' E 004°26'0 0.0
2015-Apr-20 08:33N 51°53' E 004°26'0 0.0
2015-Apr-20 07:33N 51°53' E 004°26'0 0.0
2015-Apr-20 06:33N 51°53' E 004°26'0 0.0
2015-Apr-20 05:33N 51°53' E 004°26'0 0.0
2015-Apr-20 04:32N 51°53' E 004°26'0 0.0
2015-Apr-20 03:33N 51°53' E 004°26'0 0.0
2015-Apr-20 02:33N 51°53' E 004°26'0 0.0
2015-Apr-20 01:33N 51°53' E 004°26'0 0.0
2015-Apr-20 00:33N 51°53' E 004°26'0 0.0
2015-Apr-19 23:33N 51°53' E 004°26'0 0.0
2015-Apr-19 22:33N 51°53' E 004°26'0 0.0
2015-Apr-19 21:33N 51°53' E 004°26'0 0.0
2015-Apr-19 20:33N 51°53' E 004°26'0 0.0
2015-Apr-19 19:33N 51°53' E 004°26'0 0.0
2015-Apr-19 18:33N 51°53' E 004°26'0 0.0
2015-Apr-19 17:32N 51°53' E 004°26'0 0.0
2015-Apr-19 16:33N 51°53' E 004°26'0 0.0
2015-Apr-19 15:33N 51°53' E 004°26'0 0.0
2015-Apr-19 14:33N 51°53' E 004°26'0 0.0
2015-Apr-19 13:33N 51°53' E 004°26'0 0.0
2015-Apr-19 12:33N 51°53' E 004°26'0 0.0
2015-Apr-19 11:33N 51°53' E 004°26'0 0.0
2015-Apr-19 10:33N 51°53' E 004°26'0 0.0
2015-Apr-19 09:33N 51°53' E 004°26'0 0.0
2015-Apr-19 08:33N 51°53' E 004°26'0 0.0
2015-Apr-19 06:33N 51°53' E 004°26'0 0.0
2015-Apr-19 05:33N 51°53' E 004°26'0 0.0
2015-Apr-19 04:33N 51°53' E 004°26'0 0.0
2015-Apr-19 03:33N 51°53' E 004°26'0 0.0
2015-Apr-19 02:33N 51°53' E 004°26'0 0.0
2015-Apr-19 01:33N 51°53' E 004°26'0 0.0
2015-Apr-19 00:33N 51°53' E 004°26'0 0.0
2015-Apr-18 23:33N 51°53' E 004°26'0 0.0
2015-Apr-18 22:33N 51°53' E 004°26'0 0.0
2015-Apr-18 20:33N 51°53' E 004°26'0 0.0
2015-Apr-18 19:33N 51°53' E 004°26'0 0.0
2015-Apr-18 18:33N 51°53' E 004°26'  

Dump ship's entire track history